createdAt,value
2022-11-09T00:00:02.380Z,7.00
2022-11-09T00:10:01.602Z,6.30
2022-11-09T00:20:00.143Z,6.90
2022-11-09T00:30:02.061Z,6.70
2022-11-09T00:40:00.184Z,6.80
2022-11-09T00:50:01.321Z,4.90
2022-11-09T01:00:03.587Z,4.90
2022-11-09T01:10:00.203Z,8.40
2022-11-09T01:20:01.235Z,5.30
2022-11-09T01:30:00.177Z,6.40
2022-11-09T01:40:00.190Z,6.80
2022-11-09T01:50:01.231Z,8.20
2022-11-09T02:00:01.260Z,7.50
2022-11-09T02:10:01.572Z,7.10
2022-11-09T02:20:00.143Z,5.70
2022-11-09T02:30:01.280Z,10.10
2022-11-09T02:40:01.172Z,6.80
2022-11-09T02:50:02.557Z,6.70
2022-11-09T03:00:01.559Z,7.40
2022-11-09T03:10:02.549Z,8.70
2022-11-09T03:20:01.269Z,7.80
2022-11-09T03:30:01.326Z,7.40
2022-11-09T03:40:00.160Z,9.40
2022-11-09T03:50:00.156Z,6.60
2022-11-09T04:00:01.085Z,7.30
2022-11-09T04:10:01.039Z,6.30
2022-11-09T04:20:01.423Z,6.70
2022-11-09T04:30:02.943Z,5.50
2022-11-09T04:40:01.160Z,6.90
2022-11-09T04:50:00.163Z,5.10
2022-11-09T05:00:01.916Z,4.30
2022-11-09T05:20:01.072Z,8.20
2022-11-09T05:30:00.155Z,5.90
2022-11-09T05:40:01.039Z,7.00
2022-11-09T05:50:01.330Z,9.40
2022-11-09T06:00:01.493Z,6.10
2022-11-09T06:10:01.241Z,7.20
2022-11-09T06:20:00.128Z,6.20
2022-11-09T06:30:00.171Z,5.50
2022-11-09T06:40:00.128Z,7.60
2022-11-09T06:50:00.177Z,6.70
2022-11-09T07:00:02.166Z,7.00
2022-11-09T07:10:01.331Z,6.60
2022-11-09T07:20:01.235Z,7.40
2022-11-09T07:30:02.551Z,7.80
2022-11-09T07:40:01.199Z,1.40
2022-11-09T07:50:01.297Z,2.60
2022-11-09T08:00:00.174Z,1.70
2022-11-09T08:10:01.237Z,1.50
2022-11-09T08:20:01.164Z,3.50
2022-11-09T08:30:00.171Z,6.20
2022-11-09T08:40:01.235Z,2.80
2022-11-09T08:50:01.210Z,3.50
2022-11-09T09:00:01.917Z,3.00
2022-11-09T09:10:01.034Z,1.80
2022-11-09T09:20:00.122Z,3.90
2022-11-09T09:30:01.263Z,2.50
2022-11-09T09:40:00.997Z,2.80
2022-11-09T09:50:01.057Z,3.10
2022-11-09T10:00:01.343Z,1.70
2022-11-09T10:10:01.268Z,5.60
2022-11-09T10:20:01.313Z,2.40
2022-11-09T10:30:01.110Z,1.90
2022-11-09T10:40:01.492Z,3.00
2022-11-09T10:50:01.012Z,7.30
2022-11-09T11:00:01.281Z,9.10
2022-11-09T11:10:00.176Z,26.90
2022-11-09T11:20:01.083Z,51.20
2022-11-09T11:30:00.164Z,47.90
2022-11-09T11:40:00.987Z,30.60
2022-11-09T11:50:00.269Z,27.30
2022-11-09T12:00:01.101Z,27.10
2022-11-09T12:10:01.032Z,13.00
2022-11-09T12:20:01.191Z,11.10
2022-11-09T12:30:01.477Z,8.60
2022-11-09T12:40:01.188Z,6.00
2022-11-09T12:50:00.996Z,12.60
2022-11-09T13:00:00.199Z,10.30
2022-11-09T13:10:02.391Z,9.80
2022-11-09T13:20:00.994Z,10.10
2022-11-09T13:30:01.316Z,7.00
2022-11-09T13:40:00.995Z,7.30
2022-11-09T13:50:01.043Z,6.40
2022-11-09T14:00:00.978Z,3.70
2022-11-09T14:10:01.501Z,3.50
2022-11-09T14:20:01.299Z,3.80
2022-11-09T14:40:01.032Z,7.30
2022-11-09T14:50:00.245Z,6.70
2022-11-09T15:00:00.127Z,2.70
2022-11-09T15:10:02.702Z,2.10
2022-11-09T15:20:01.071Z,1.60
2022-11-09T15:30:02.033Z,2.00
2022-11-09T15:40:00.977Z,1.90
2022-11-09T15:50:00.996Z,1.40
2022-11-09T16:00:01.380Z,2.60
2022-11-09T16:10:01.549Z,2.40
2022-11-09T16:20:00.181Z,2.80
2022-11-09T16:30:01.143Z,8.70
2022-11-09T16:40:00.132Z,12.30
2022-11-09T16:50:01.050Z,10.40
2022-11-09T17:00:01.111Z,12.00
2022-11-09T17:10:00.189Z,12.80
2022-11-09T17:20:00.986Z,7.90
2022-11-09T17:30:00.170Z,9.50
2022-11-09T17:40:01.194Z,7.70
2022-11-09T17:50:02.403Z,8.00
2022-11-09T18:00:01.062Z,11.60
2022-11-09T18:10:00.996Z,13.60
2022-11-09T18:20:00.135Z,10.50
2022-11-09T18:30:01.564Z,14.50
2022-11-09T18:40:01.296Z,7.90
2022-11-09T18:50:01.815Z,10.60
2022-11-09T19:00:01.575Z,9.20
2022-11-09T19:10:01.643Z,7.00
2022-11-09T19:20:00.999Z,5.80
2022-11-09T19:30:04.914Z,8.00
2022-11-09T19:40:00.128Z,6.70
2022-11-09T19:50:01.967Z,9.00
2022-11-09T20:00:01.281Z,6.20
2022-11-09T20:10:01.248Z,9.00
2022-11-09T20:20:01.074Z,8.70
2022-11-09T20:30:03.416Z,9.50
2022-11-09T20:40:01.490Z,11.70
2022-11-09T20:50:01.027Z,10.80
2022-11-09T21:00:01.227Z,12.20
2022-11-09T21:10:01.038Z,10.80
2022-11-09T21:20:01.144Z,9.40
2022-11-09T21:30:00.183Z,14.60
2022-11-09T21:40:00.139Z,10.70
2022-11-09T21:50:01.250Z,8.50
2022-11-09T22:00:00.173Z,11.80
2022-11-09T22:10:11.465Z,7.90
2022-11-09T22:20:00.150Z,6.50
2022-11-09T22:30:00.232Z,6.20
2022-11-09T22:40:01.251Z,10.90
2022-11-09T22:50:01.601Z,5.30
2022-11-09T23:00:00.151Z,4.40
2022-11-09T23:10:01.012Z,4.30
2022-11-09T23:20:00.138Z,4.00
2022-11-09T23:30:01.279Z,8.00
2022-11-09T23:40:00.951Z,5.10
2022-11-09T23:50:01.075Z,5.10
